Time;durP1;ratioP1;P1;durP2;ratioP2;P2;SDS_P1;SDS_P2;PMS_P1;PMS_P2;Temp;Humidity;BMP_temperature;BMP_pressure;BME280_temperature;BME280_humidity;BME280_pressure;Samples;Min_cycle;Max_cycle;Signal;HPM_P1;HPM_P2
2023/12/27 00:01:43;;;;;;;24.95;9.52;;;;;;;-143.54;100.00;59916.91;5096121;28;20024;-81
2023/12/27 00:04:09;;;;;;;23.20;10.25;;;;;;;-143.54;100.00;59916.91;5093301;28;20162;-81
2023/12/27 00:06:34;;;;;;;21.90;9.32;;;;;;;-143.54;100.00;59916.91;5093539;28;20442;-81
2023/12/27 00:09:00;;;;;;;15.15;9.00;;;;;;;-143.54;100.00;59916.91;5093661;28;20047;-81
2023/12/27 00:11:26;;;;;;;22.25;10.10;;;;;;;-143.54;100.00;59916.91;5093075;28;20063;-81
2023/12/27 00:13:51;;;;;;;24.65;9.73;;;;;;;-143.54;100.00;59916.91;5093424;28;20085;-81
2023/12/27 00:16:16;;;;;;;23.38;10.02;;;;;;;-143.54;100.00;59916.91;5093416;28;20073;-81
2023/12/27 00:18:42;;;;;;;23.40;10.38;;;;;;;-143.54;100.00;59916.91;5093145;28;20459;-81
2023/12/27 00:21:07;;;;;;;20.98;10.82;;;;;;;-143.54;100.00;59916.91;5093834;28;20020;-81
2023/12/27 00:23:32;;;;;;;19.45;9.95;;;;;;;-143.54;100.00;59916.91;5089899;28;20032;-80
2023/12/27 00:25:57;;;;;;;17.38;9.45;;;;;;;-143.54;100.00;59916.91;5093453;28;20103;-81
2023/12/27 00:28:23;;;;;;;21.88;9.82;;;;;;;-143.54;100.00;59916.91;5093625;28;20024;-81
2023/12/27 00:30:49;;;;;;;19.20;10.48;;;;;;;-143.54;100.00;59916.91;5092866;28;20471;-81
2023/12/27 00:33:15;;;;;;;28.02;11.15;;;;;;;-143.54;100.00;59916.91;5093172;28;20096;-81
2023/12/27 00:35:40;;;;;;;25.40;12.05;;;;;;;-143.54;100.00;59916.91;5092897;28;20468;-81
2023/12/27 00:38:06;;;;;;;22.75;10.90;;;;;;;-143.54;100.00;59916.91;5096521;28;20069;-81
2023/12/27 00:40:31;;;;;;;24.90;10.60;;;;;;;-143.54;100.00;59916.91;5093241;28;20080;-81
2023/12/27 00:42:57;;;;;;;23.27;11.73;;;;;;;-143.54;100.00;59916.91;5093140;28;20055;-81
2023/12/27 00:45:22;;;;;;;27.42;11.60;;;;;;;-143.54;100.00;59916.91;5092173;28;20110;-81
2023/12/27 00:47:47;;;;;;;25.10;12.95;;;;;;;-143.54;100.00;59916.91;5092944;28;20365;-81
2023/12/27 00:50:13;;;;;;;20.38;11.50;;;;;;;-143.54;100.00;59916.91;5092355;28;20076;-81
2023/12/27 00:52:38;;;;;;;26.67;12.32;;;;;;;-143.54;100.00;59916.91;5091740;28;20048;-81
2023/12/27 00:55:04;;;;;;;24.10;12.25;;;;;;;-143.54;100.00;59916.91;5093158;28;20024;-80
2023/12/27 00:57:30;;;;;;;25.92;12.25;;;;;;;-143.54;100.00;59916.91;5094697;28;20169;-81
2023/12/27 00:59:56;;;;;;;30.00;12.20;;;;;;;-143.54;100.00;59916.91;5092025;28;20024;-81
2023/12/27 01:02:21;;;;;;;25.23;11.98;;;;;;;-143.54;100.00;59916.91;5092385;28;20072;-81
2023/12/27 01:04:46;;;;;;;28.95;12.52;;;;;;;-143.54;100.00;59916.91;5092752;28;20024;-81
2023/12/27 01:07:12;;;;;;;24.20;11.55;;;;;;;-143.54;100.00;59916.91;5094423;28;20468;-80
2023/12/27 01:09:37;;;;;;;31.55;12.93;;;;;;;-143.54;100.00;59916.91;5092526;28;20046;-81
2023/12/27 01:12:03;;;;;;;23.75;12.48;;;;;;;-143.54;100.00;59916.91;5092756;28;20028;-80
2023/12/27 01:14:28;;;;;;;28.55;12.00;;;;;;;-143.54;100.00;59916.91;5091779;28;20074;-81
2023/12/27 01:16:56;;;;;;;22.20;11.45;;;;;;;-143.54;100.00;59916.91;5092724;28;20040;-81
2023/12/27 01:19:21;;;;;;;24.73;11.60;;;;;;;-143.54;100.00;59916.91;5091082;28;20039;-81
2023/12/27 01:21:46;;;;;;;22.63;11.30;;;;;;;-143.54;100.00;59916.91;5091696;28;20375;-81
2023/12/27 01:24:12;;;;;;;24.77;11.77;;;;;;;-143.54;100.00;59916.91;5092838;28;20047;-81
2023/12/27 01:26:37;;;;;;;24.13;11.45;;;;;;;-143.54;100.00;59916.91;5092273;28;20028;-81
2023/12/27 01:29:02;;;;;;;28.38;11.27;;;;;;;-143.54;100.00;59916.91;5091705;28;20028;-80
2023/12/27 01:31:28;;;;;;;22.13;12.40;;;;;;;-143.54;100.00;59916.91;5092362;28;20066;-81
2023/12/27 01:33:53;;;;;;;25.38;12.65;;;;;;;-143.54;100.00;59916.91;5094880;28;20590;-81
2023/12/27 01:36:20;;;;;;;23.50;12.15;;;;;;;-143.54;100.00;59916.91;5091895;28;20036;-80
2023/12/27 01:38:45;;;;;;;25.55;11.43;;;;;;;-143.54;100.00;59916.91;5103772;28;20122;-81
2023/12/27 01:41:10;;;;;;;23.60;11.80;;;;;;;-143.54;100.00;59916.91;5103108;28;20111;-80
2023/12/27 01:43:36;;;;;;;34.95;13.05;;;;;;;-143.54;100.00;59916.91;5099650;28;20107;-80
2023/12/27 01:46:02;;;;;;;22.20;11.65;;;;;;;-143.54;100.00;59916.91;5100352;28;20490;-81
2023/12/27 01:48:28;;;;;;;18.77;11.65;;;;;;;-143.54;100.00;59916.91;5099350;28;20062;-80
2023/12/27 01:50:54;;;;;;;23.30;11.82;;;;;;;-143.54;100.00;59916.91;5098100;28;20055;-81
2023/12/27 01:53:22;;;;;;;23.30;12.35;;;;;;;-143.54;100.00;59916.91;5101969;28;20059;-80
2023/12/27 01:55:47;;;;;;;27.50;11.57;;;;;;;-143.54;100.00;59916.91;5093853;28;20036;-80
2023/12/27 01:58:13;;;;;;;22.35;11.38;;;;;;;-143.54;100.00;59916.91;5095872;28;20052;-81
2023/12/27 02:00:42;;;;;;;26.67;12.57;;;;;;;-143.54;100.00;59916.91;5093476;28;20471;-81
2023/12/27 02:03:08;;;;;;;21.70;11.35;;;;;;;-143.54;100.00;59916.91;5099249;28;20020;-81
2023/12/27 02:05:34;;;;;;;27.02;12.13;;;;;;;-143.54;100.00;59916.91;5099073;28;20020;-81
2023/12/27 02:07:59;;;;;;;31.23;12.40;;;;;;;-143.54;100.00;59916.91;5103802;28;20024;-81
2023/12/27 02:10:27;;;;;;;24.08;12.32;;;;;;;-143.54;100.00;59916.91;5100924;28;20024;-81
2023/12/27 02:12:54;;;;;;;30.42;12.80;;;;;;;-143.54;100.00;59916.91;5101085;28;20072;-81
2023/12/27 02:15:19;;;;;;;30.50;12.00;;;;;;;-143.54;100.00;59916.91;5099646;28;20019;-81
2023/12/27 02:17:45;;;;;;;23.08;12.20;;;;;;;-143.54;100.00;59916.91;5098705;28;20034;-81
2023/12/27 02:20:11;;;;;;;23.35;12.35;;;;;;;-143.54;100.00;59916.91;5102835;28;20048;-81
2023/12/27 02:22:38;;;;;;;21.55;12.27;;;;;;;-143.54;100.00;59916.91;5099169;28;20427;-81
2023/12/27 02:25:05;;;;;;;26.73;12.57;;;;;;;-143.54;100.00;59916.91;5101740;28;20028;-81
2023/12/27 02:27:30;;;;;;;21.33;11.85;;;;;;;-143.54;100.00;59916.91;5098678;28;20475;-81
2023/12/27 02:29:55;;;;;;;28.30;12.00;;;;;;;-143.54;100.00;59916.91;5101569;28;20031;-81
2023/12/27 02:32:21;;;;;;;22.60;12.10;;;;;;;-143.54;100.00;59916.91;5098046;28;20028;-81
2023/12/27 02:34:46;;;;;;;20.65;11.23;;;;;;;-143.54;100.00;59916.91;5101980;28;20106;-81
2023/12/27 02:37:11;;;;;;;20.38;11.43;;;;;;;-143.54;100.00;59916.91;5097981;28;20103;-81
2023/12/27 02:39:37;;;;;;;25.13;12.23;;;;;;;-143.54;100.00;59916.91;5095524;28;20058;-81
2023/12/27 02:42:02;;;;;;;24.10;10.68;;;;;;;-143.54;100.00;59916.91;5106962;28;20053;-80
2023/12/27 02:44:27;;;;;;;26.40;10.70;;;;;;;-143.54;100.00;59916.91;5100090;28;20356;-81
2023/12/27 02:46:53;;;;;;;23.83;10.23;;;;;;;-143.54;100.00;59916.91;5104035;28;20036;-81
2023/12/27 02:49:19;;;;;;;25.75;10.35;;;;;;;-143.54;100.00;59916.91;5100686;28;20026;-81
2023/12/27 02:51:44;;;;;;;21.73;10.20;;;;;;;-143.54;100.00;59916.91;5101909;28;20081;-81
2023/12/27 02:54:09;;;;;;;23.80;10.55;;;;;;;-143.54;100.00;59916.91;5100915;28;20030;-81
2023/12/27 02:56:35;;;;;;;23.73;9.93;;;;;;;-143.54;100.00;59916.91;5102861;28;20047;-81
2023/12/27 02:59:00;;;;;;;23.63;10.98;;;;;;;-143.54;100.00;59916.91;5097137;28;20467;-81
2023/12/27 03:01:25;;;;;;;27.23;9.95;;;;;;;-143.54;100.00;59916.91;5097151;28;20032;-81
2023/12/27 03:03:51;;;;;;;25.73;10.60;;;;;;;-143.54;100.00;59916.91;5095914;28;20023;-81
2023/12/27 03:06:16;;;;;;;24.40;10.63;;;;;;;-143.54;100.00;59916.91;5098143;28;20119;-81
2023/12/27 03:08:41;;;;;;;23.73;10.30;;;;;;;-143.54;100.00;59916.91;5095648;28;20077;-81
2023/12/27 03:11:06;;;;;;;27.45;11.07;;;;;;;-143.54;100.00;59916.91;5098615;28;20028;-81
2023/12/27 03:13:33;;;;;;;21.10;9.98;;;;;;;-143.54;100.00;59916.91;5094353;28;20020;-81
2023/12/27 03:15:58;;;;;;;24.35;11.05;;;;;;;-143.54;100.00;59916.91;5076658;28;20028;-81
2023/12/27 03:18:23;;;;;;;30.38;10.82;;;;;;;-143.54;100.00;59916.91;5100160;28;20031;-81
2023/12/27 03:20:49;;;;;;;24.83;10.85;;;;;;;-143.54;100.00;59916.91;5097235;28;20477;-81
2023/12/27 03:23:14;;;;;;;25.45;10.30;;;;;;;-143.54;100.00;59916.91;5095646;28;20040;-81
2023/12/27 03:25:40;;;;;;;22.35;10.20;;;;;;;-143.54;100.00;59916.91;5097575;28;20031;-81
2023/12/27 03:28:05;;;;;;;16.77;10.40;;;;;;;-143.54;100.00;59916.91;5100416;28;20039;-81
2023/12/27 03:30:30;;;;;;;35.67;10.98;;;;;;;-143.54;100.00;59916.91;5098002;28;20047;-81
2023/12/27 03:32:55;;;;;;;19.02;10.10;;;;;;;-143.54;100.00;59916.91;5100419;28;20032;-81
2023/12/27 03:35:21;;;;;;;26.77;10.10;;;;;;;-143.54;100.00;59916.91;5099461;28;20028;-81
2023/12/27 03:37:46;;;;;;;27.13;11.05;;;;;;;-143.54;100.00;59916.91;5100439;28;20202;-81
2023/12/27 03:40:13;;;;;;;29.05;10.73;;;;;;;-143.54;100.00;59916.91;5098997;28;20031;-81
2023/12/27 03:42:38;;;;;;;34.72;12.23;;;;;;;-143.54;100.00;59916.91;5100364;28;20475;-81
2023/12/27 03:45:04;;;;;;;27.35;10.93;;;;;;;-143.54;100.00;59916.91;5102779;28;20142;-81
2023/12/27 03:47:29;;;;;;;33.25;11.70;;;;;;;-143.54;100.00;59916.91;5098702;28;20047;-81
2023/12/27 03:49:54;;;;;;;31.17;11.15;;;;;;;-143.54;100.00;59916.91;5103778;28;20064;-81
2023/12/27 03:52:20;;;;;;;21.67;11.65;;;;;;;-143.54;100.00;59916.91;5101153;28;20059;-81
2023/12/27 03:54:45;;;;;;;26.05;11.15;;;;;;;-143.54;100.00;59916.91;5102118;28;20132;-81
2023/12/27 03:57:10;;;;;;;30.65;12.45;;;;;;;-143.54;100.00;59916.91;5101079;28;20032;-81
2023/12/27 03:59:37;;;;;;;28.92;11.75;;;;;;;-143.54;100.00;59916.91;5101022;28;20044;-81
2023/12/27 04:02:03;;;;;;;24.33;12.27;;;;;;;-143.54;100.00;59916.91;5093089;28;20034;-81
2023/12/27 04:04:29;;;;;;;25.27;12.43;;;;;;;-143.54;100.00;59916.91;5103890;28;20035;-80
2023/12/27 04:06:54;;;;;;;29.88;12.40;;;;;;;-143.54;100.00;59916.91;5094257;28;20028;-81
2023/12/27 04:09:19;;;;;;;29.42;13.55;;;;;;;-143.54;100.00;59916.91;5102231;28;20028;-81
2023/12/27 04:11:45;;;;;;;29.58;13.48;;;;;;;-143.54;100.00;59916.91;5098903;28;20020;-81
2023/12/27 04:14:14;;;;;;;35.15;14.65;;;;;;;-143.54;100.00;59916.91;5101234;28;20077;-81
2023/12/27 04:16:39;;;;;;;28.17;13.75;;;;;;;-143.54;100.00;59916.91;5097602;28;20023;-81
2023/12/27 04:19:05;;;;;;;36.58;14.68;;;;;;;-143.54;100.00;59916.91;5101845;28;20072;-81
2023/12/27 04:21:30;;;;;;;28.85;14.25;;;;;;;-143.54;100.00;59916.91;5099112;28;20410;-81
2023/12/27 04:23:56;;;;;;;34.80;14.63;;;;;;;-143.54;100.00;59916.91;5100120;28;20020;-81
2023/12/27 04:26:21;;;;;;;28.85;13.88;;;;;;;-143.54;100.00;59916.91;5099559;28;20498;-81
2023/12/27 04:28:46;;;;;;;29.63;15.35;;;;;;;-143.54;100.00;59916.91;5101423;28;20161;-81
2023/12/27 04:31:13;;;;;;;26.05;14.35;;;;;;;-143.54;100.00;59916.91;5093895;28;20024;-81
2023/12/27 04:33:38;;;;;;;29.85;14.63;;;;;;;-143.54;100.00;59916.91;5101864;28;20036;-80
2023/12/27 04:36:05;;;;;;;29.33;14.07;;;;;;;-143.54;100.00;59916.91;5094660;28;20024;-81
2023/12/27 04:38:30;;;;;;;30.77;15.07;;;;;;;-143.54;100.00;59916.91;5092278;28;20024;-81
2023/12/27 04:40:56;;;;;;;29.65;14.02;;;;;;;-143.54;100.00;59916.91;5094312;28;20475;-81
2023/12/27 04:43:21;;;;;;;26.10;13.57;;;;;;;-143.54;100.00;59916.91;5099150;28;20078;-81
2023/12/27 04:45:48;;;;;;;31.67;13.88;;;;;;;-143.54;100.00;59916.91;5096093;28;20050;-81
2023/12/27 04:48:14;;;;;;;30.73;13.45;;;;;;;-143.54;100.00;59916.91;5101193;28;20392;-80
2023/12/27 04:50:39;;;;;;;33.67;13.48;;;;;;;-143.54;100.00;59916.91;5097744;28;20065;-81
2023/12/27 04:53:05;;;;;;;30.92;12.70;;;;;;;-143.54;100.00;59916.91;5102532;28;20027;-80
2023/12/27 04:55:30;;;;;;;27.40;13.00;;;;;;;-143.54;100.00;59916.91;5095779;28;20043;-81
2023/12/27 04:57:55;;;;;;;30.83;13.02;;;;;;;-143.54;100.00;59916.91;5103053;28;20486;-81
2023/12/27 05:00:22;;;;;;;26.30;13.15;;;;;;;-143.54;100.00;59916.91;5095604;28;20490;-81
2023/12/27 05:02:48;;;;;;;29.98;13.13;;;;;;;-143.54;100.00;59916.91;5102188;28;20106;-81
2023/12/27 05:05:13;;;;;;;28.17;11.80;;;;;;;-143.54;100.00;59916.91;5096275;28;20107;-81
2023/12/27 05:07:38;;;;;;;28.90;12.48;;;;;;;-143.54;100.00;59916.91;5099810;28;20046;-81
2023/12/27 05:10:04;;;;;;;35.35;12.27;;;;;;;-143.54;100.00;59916.91;5098986;28;20123;-81
2023/12/27 05:12:29;;;;;;;21.85;11.90;;;;;;;-143.54;100.00;59916.91;5096584;28;20032;-81
2023/12/27 05:14:55;;;;;;;25.17;12.75;;;;;;;-143.54;100.00;59916.91;5099314;28;20020;-81
2023/12/27 05:17:21;;;;;;;32.30;12.23;;;;;;;-143.54;100.00;59916.91;5096421;28;20474;-81
2023/12/27 05:19:46;;;;;;;20.65;11.38;;;;;;;-143.54;100.00;59916.91;5097620;28;20074;-81
2023/12/27 05:22:12;;;;;;;29.58;12.60;;;;;;;-143.54;100.00;59916.91;5101579;28;20019;-81
2023/12/27 05:24:37;;;;;;;23.45;11.45;;;;;;;-143.54;100.00;59916.91;5100374;28;20581;-81
2023/12/27 05:27:02;;;;;;;29.17;12.85;;;;;;;-143.54;100.00;59916.91;5095910;28;20058;-81
2023/12/27 05:29:28;;;;;;;27.50;12.35;;;;;;;-143.54;100.00;59916.91;5092294;28;20099;-82
2023/12/27 05:31:54;;;;;;;24.65;11.82;;;;;;;-143.54;100.00;59916.91;5096883;28;20040;-82
2023/12/27 05:34:19;;;;;;;26.42;12.05;;;;;;;-143.54;100.00;59916.91;5098132;28;20036;-82
2023/12/27 05:36:44;;;;;;;30.25;12.35;;;;;;;-143.54;100.00;59916.91;5100216;28;20027;-82
2023/12/27 05:39:12;;;;;;;33.63;12.85;;;;;;;-143.54;100.00;59916.91;5099034;28;20067;-82
2023/12/27 05:41:37;;;;;;;29.92;12.15;;;;;;;-143.54;100.00;59916.91;5092012;28;20274;-81
2023/12/27 05:44:03;;;;;;;30.75;12.13;;;;;;;-143.54;100.00;59916.91;5100832;28;20114;-82
2023/12/27 05:46:33;;;;;;;28.35;12.02;;;;;;;-143.54;100.00;59916.91;5097356;28;20028;-82
2023/12/27 05:48:58;;;;;;;35.50;13.70;;;;;;;-143.54;100.00;59916.91;5101819;28;20027;-82
2023/12/27 05:51:23;;;;;;;29.08;13.25;;;;;;;-143.54;100.00;59916.91;5097354;28;20036;-82
2023/12/27 05:53:48;;;;;;;33.95;13.25;;;;;;;-143.54;100.00;59916.91;5092751;28;20039;-82
2023/12/27 05:56:14;;;;;;;29.02;12.70;;;;;;;-143.54;100.00;59916.91;5097880;28;20023;-82
2023/12/27 05:58:39;;;;;;;33.15;12.95;;;;;;;-143.54;100.00;59916.91;5099363;28;20138;-81
2023/12/27 06:01:05;;;;;;;27.98;12.48;;;;;;;-143.54;100.00;59916.91;5097276;28;20057;-81
2023/12/27 06:03:30;;;;;;;30.35;12.30;;;;;;;-143.54;100.00;59916.91;5098294;28;20089;-82
2023/12/27 06:05:56;;;;;;;28.13;13.75;;;;;;;-143.54;100.00;59916.91;5096358;28;20031;-82
2023/12/27 06:08:21;;;;;;;33.00;13.55;;;;;;;-143.54;100.00;59916.91;5100320;28;20039;-82
2023/12/27 06:10:46;;;;;;;30.25;13.70;;;;;;;-143.54;100.00;59916.91;5094040;28;20031;-81
2023/12/27 06:13:12;;;;;;;32.58;12.90;;;;;;;-143.54;100.00;59916.91;5102698;28;20020;-81
2023/12/27 06:15:37;;;;;;;28.23;13.73;;;;;;;-143.54;100.00;59916.91;5101847;28;20040;-81
2023/12/27 06:18:03;;;;;;;27.98;12.90;;;;;;;-143.54;100.00;59916.91;5100332;28;20028;-81
2023/12/27 06:20:28;;;;;;;24.55;12.55;;;;;;;-143.54;100.00;59916.91;5095548;28;20039;-82
2023/12/27 06:22:53;;;;;;;38.17;13.90;;;;;;;-143.54;100.00;59916.91;5097378;28;20111;-81
2023/12/27 06:25:19;;;;;;;24.05;13.35;;;;;;;-143.54;100.00;59916.91;5097082;28;20464;-82
2023/12/27 06:27:44;;;;;;;36.63;13.45;;;;;;;-143.54;100.00;59916.91;5093734;28;20036;-81
2023/12/27 06:30:10;;;;;;;24.40;13.27;;;;;;;-143.54;100.00;59916.91;5098556;28;20036;-81
2023/12/27 06:32:35;;;;;;;25.63;12.32;;;;;;;-143.54;100.00;59916.91;5091799;28;20039;-82
2023/12/27 06:35:02;;;;;;;31.88;13.85;;;;;;;-143.54;100.00;59916.91;5097342;28;20024;-81
2023/12/27 06:37:27;;;;;;;27.77;13.30;;;;;;;-143.54;100.00;59916.91;5094908;28;20052;-82
2023/12/27 06:39:52;;;;;;;25.83;13.25;;;;;;;-143.54;100.00;59916.91;5098827;28;20064;-81
2023/12/27 06:42:18;;;;;;;27.65;13.68;;;;;;;-143.54;100.00;59916.91;5094990;28;20032;-82
2023/12/27 06:44:43;;;;;;;25.35;13.73;;;;;;;-143.54;100.00;59916.91;5090832;28;20020;-81
2023/12/27 06:47:08;;;;;;;28.95;13.52;;;;;;;-143.54;100.00;59916.91;5099090;28;20024;-81
2023/12/27 06:49:34;;;;;;;25.88;13.15;;;;;;;-143.54;100.00;59916.91;5099911;28;20043;-81
2023/12/27 06:51:59;;;;;;;29.35;13.63;;;;;;;-143.54;100.00;59916.91;5103236;28;20020;-81
2023/12/27 06:54:24;;;;;;;24.40;14.02;;;;;;;-143.54;100.00;59916.91;5102855;28;20094;-81
2023/12/27 06:56:49;;;;;;;24.05;13.18;;;;;;;-143.54;100.00;59916.91;5100511;28;20115;-81
2023/12/27 06:59:15;;;;;;;21.50;12.43;;;;;;;-143.54;100.00;59916.91;5103412;28;20054;-81
2023/12/27 07:01:40;;;;;;;25.52;13.63;;;;;;;-143.54;100.00;59916.91;5099966;28;20055;-81
2023/12/27 07:04:05;;;;;;;23.38;13.15;;;;;;;-143.54;100.00;59916.91;5104073;28;20439;-81
2023/12/27 07:06:31;;;;;;;23.63;13.15;;;;;;;-143.54;100.00;59916.91;5098841;28;20031;-81
2023/12/27 07:08:56;;;;;;;26.70;13.98;;;;;;;-143.54;100.00;59916.91;5095053;28;20528;-81
2023/12/27 07:11:21;;;;;;;27.45;14.10;;;;;;;-143.54;100.00;59916.91;5099888;28;20031;-81
2023/12/27 07:13:47;;;;;;;24.40;13.70;;;;;;;-143.54;100.00;59916.91;5101655;28;20069;-81
2023/12/27 07:16:13;;;;;;;25.50;13.68;;;;;;;-143.54;100.00;59916.91;5102281;28;20023;-81
2023/12/27 07:18:39;;;;;;;30.35;14.13;;;;;;;-143.54;100.00;59916.91;5101483;28;20024;-81
2023/12/27 07:21:05;;;;;;;27.08;14.30;;;;;;;-143.54;100.00;59916.91;5097053;28;20402;-81
2023/12/27 07:23:30;;;;;;;28.33;14.93;;;;;;;-143.54;100.00;59916.91;5103925;28;20098;-81
2023/12/27 07:25:56;;;;;;;26.92;14.32;;;;;;;-143.54;100.00;59916.91;5098138;28;20102;-81
2023/12/27 07:28:21;;;;;;;25.05;14.63;;;;;;;-143.54;100.00;59916.91;5104456;28;20111;-81
2023/12/27 07:30:46;;;;;;;27.52;14.75;;;;;;;-143.54;100.00;59916.91;5096846;28;20019;-81
2023/12/27 07:33:15;;;;;;;29.48;14.68;;;;;;;-143.54;100.00;59916.91;5097247;28;20035;-81
2023/12/27 07:35:45;;;;;;;30.25;15.73;;;;;;;-143.54;100.00;59916.91;5094707;28;20051;-82
2023/12/27 07:38:10;;;;;;;30.00;14.80;;;;;;;-143.54;100.00;59916.91;5103684;28;20077;-82
2023/12/27 07:40:35;;;;;;;26.10;14.98;;;;;;;-143.54;100.00;59916.91;5098395;28;20028;-81
2023/12/27 07:43:02;;;;;;;28.15;15.32;;;;;;;-143.54;100.00;59916.91;5097410;28;20024;-81
2023/12/27 07:45:27;;;;;;;29.73;15.13;;;;;;;-143.54;100.00;59916.91;5090341;28;20039;-81
2023/12/27 07:47:52;;;;;;;33.85;16.52;;;;;;;-143.54;100.00;59916.91;5103783;28;20036;-81
2023/12/27 07:50:18;;;;;;;31.08;15.35;;;;;;;-143.54;100.00;59916.91;5096131;28;20181;-81
2023/12/27 07:52:43;;;;;;;32.80;16.50;;;;;;;-143.54;100.00;59916.91;5105005;28;20036;-81
2023/12/27 07:55:08;;;;;;;30.98;15.98;;;;;;;-143.54;100.00;59916.91;5096794;28;20059;-81
2023/12/27 07:57:34;;;;;;;36.55;17.80;;;;;;;-143.54;100.00;59916.91;5101907;28;20019;-81
2023/12/27 07:59:59;;;;;;;35.05;16.85;;;;;;;-143.54;100.00;59916.91;5098481;28;20072;-81
2023/12/27 08:02:25;;;;;;;37.42;17.13;;;;;;;-143.54;100.00;59916.91;5098881;28;20107;-81
2023/12/27 08:04:50;;;;;;;34.55;15.93;;;;;;;-143.54;100.00;59916.91;5101138;28;20032;-81
2023/12/27 08:07:16;;;;;;;33.08;16.35;;;;;;;-143.54;100.00;59916.91;5098395;28;20471;-81
2023/12/27 08:09:41;;;;;;;32.22;16.30;;;;;;;-143.54;100.00;59916.91;5101021;28;20020;-81
2023/12/27 08:12:06;;;;;;;32.60;15.55;;;;;;;-143.54;100.00;59916.91;5093817;28;20067;-81
2023/12/27 08:14:32;;;;;;;35.28;16.25;;;;;;;-143.54;100.00;59916.91;5104890;28;20027;-81
2023/12/27 08:16:58;;;;;;;30.00;15.13;;;;;;;-143.54;100.00;59916.91;5097272;28;20028;-81
2023/12/27 08:19:23;;;;;;;33.28;16.10;;;;;;;-143.54;100.00;59916.91;5101253;28;20081;-81
2023/12/27 08:21:48;;;;;;;34.95;15.60;;;;;;;-143.54;100.00;59916.91;5096892;28;20475;-81
2023/12/27 08:24:13;;;;;;;29.67;15.45;;;;;;;-143.54;100.00;59916.91;5100304;28;20035;-81
2023/12/27 08:26:39;;;;;;;34.70;16.30;;;;;;;-143.54;100.00;59916.91;5097374;28;20028;-81
2023/12/27 08:29:04;;;;;;;30.52;14.80;;;;;;;-143.54;100.00;59916.91;5092438;28;20479;-81
2023/12/27 08:31:30;;;;;;;34.50;16.10;;;;;;;-143.54;100.00;59916.91;5096829;28;20106;-81
2023/12/27 08:33:58;;;;;;;30.50;14.93;;;;;;;-143.54;100.00;59916.91;5099801;28;20491;-81
2023/12/27 08:36:25;;;;;;;30.73;15.15;;;;;;;-143.54;100.00;59916.91;5091989;28;20577;-81
2023/12/27 08:38:51;;;;;;;30.25;14.85;;;;;;;-143.54;100.00;59916.91;5099593;28;20024;-81
2023/12/27 08:41:16;;;;;;;28.30;14.57;;;;;;;-143.54;100.00;59916.91;5093631;28;20478;-81
2023/12/27 08:43:42;;;;;;;32.47;15.10;;;;;;;-143.54;100.00;59916.91;5095312;28;20407;-81
2023/12/27 08:46:12;;;;;;;27.98;14.10;;;;;;;-143.54;100.00;59916.91;5097860;28;20031;-81
2023/12/27 08:48:38;;;;;;;30.65;14.23;;;;;;;-143.54;100.00;59916.91;5100296;28;20141;-81
2023/12/27 08:51:03;;;;;;;26.20;14.38;;;;;;;-143.54;100.00;59916.91;5097913;28;20531;-81
2023/12/27 08:53:29;;;;;;;33.55;13.10;;;;;;;-143.54;100.00;59916.91;5099897;28;20107;-81
2023/12/27 08:55:54;;;;;;;25.23;13.27;;;;;;;-143.54;100.00;59916.91;5098605;28;20030;-81
2023/12/27 08:58:20;;;;;;;26.75;12.20;;;;;;;-143.54;100.00;59916.91;5099151;28;20052;-81
2023/12/27 09:00:45;;;;;;;29.65;12.23;;;;;;;-143.54;100.00;59916.91;5096231;28;20053;-81
2023/12/27 09:03:11;;;;;;;28.98;11.88;;;;;;;-143.54;100.00;59916.91;5095470;28;20024;-81
2023/12/27 09:05:36;;;;;;;25.77;12.60;;;;;;;-143.54;100.00;59916.91;5093499;28;20043;-81
2023/12/27 09:08:01;;;;;;;26.92;12.50;;;;;;;-143.54;100.00;59916.91;5102488;28;20502;-81
2023/12/27 09:10:27;;;;;;;25.85;12.20;;;;;;;-143.54;100.00;59916.91;5094469;28;20024;-81
2023/12/27 09:12:52;;;;;;;22.95;11.68;;;;;;;-143.54;100.00;59916.91;5095705;28;20039;-81
2023/12/27 09:15:17;;;;;;;22.13;10.77;;;;;;;-143.54;100.00;59916.91;5093211;28;20035;-81
2023/12/27 09:17:43;;;;;;;24.83;10.65;;;;;;;-143.54;100.00;59916.91;5096344;28;20425;-81
2023/12/27 09:20:09;;;;;;;19.95;11.10;;;;;;;-143.54;100.00;59916.91;5092741;28;20031;-81
2023/12/27 09:22:35;;;;;;;26.08;12.00;;;;;;;-143.54;100.00;59916.91;5092424;28;20028;-81
2023/12/27 09:25:00;;;;;;;24.88;10.63;;;;;;;-143.54;100.00;59916.91;5092381;28;20031;-81
2023/12/27 09:27:26;;;;;;;22.60;10.82;;;;;;;-143.54;100.00;59916.91;5095643;28;20119;-81
2023/12/27 09:29:52;;;;;;;22.90;10.60;;;;;;;-143.54;100.00;59916.91;5099020;28;20024;-81
2023/12/27 09:32:18;;;;;;;25.58;11.10;;;;;;;-143.54;100.00;59916.91;5094827;28;20024;-81
2023/12/27 09:34:43;;;;;;;19.98;10.18;;;;;;;-143.54;100.00;59916.91;5098917;28;20024;-81
2023/12/27 09:37:08;;;;;;;22.08;9.77;;;;;;;-143.54;100.00;59916.91;5095884;28;20024;-81
2023/12/27 09:39:34;;;;;;;20.55;9.82;;;;;;;-143.54;100.00;59916.91;5097192;28;20074;-81
2023/12/27 09:41:59;;;;;;;21.23;9.88;;;;;;;-143.54;100.00;59916.91;5095639;28;20049;-81
2023/12/27 09:44:24;;;;;;;22.05;10.23;;;;;;;-143.54;100.00;59916.91;5098135;28;20467;-81
2023/12/27 09:46:50;;;;;;;19.20;10.00;;;;;;;-143.54;100.00;59916.91;5091632;28;20102;-81
2023/12/27 09:49:15;;;;;;;22.38;9.45;;;;;;;-143.54;100.00;59916.91;5101727;28;20020;-81
2023/12/27 09:51:43;;;;;;;16.00;9.05;;;;;;;-143.54;100.00;59916.91;5096618;28;20391;-81
2023/12/27 09:54:08;;;;;;;18.30;9.35;;;;;;;-143.54;100.00;59916.91;5099855;28;20020;-81
2023/12/27 09:56:36;;;;;;;18.90;9.02;;;;;;;-143.54;100.00;59916.91;5095979;28;20046;-81
2023/12/27 09:59:06;;;;;;;16.63;8.82;;;;;;;-143.54;100.00;59916.91;5100063;28;20048;-81
2023/12/27 10:01:37;;;;;;;18.20;8.43;;;;;;;-143.54;100.00;59916.91;5095525;28;20020;-81
2023/12/27 10:04:10;;;;;;;15.23;8.20;;;;;;;-143.54;100.00;59916.91;5092847;28;20039;-81
2023/12/27 10:06:43;;;;;;;14.70;6.93;;;;;;;-143.54;100.00;59916.91;5088261;28;20055;-81
2023/12/27 10:09:10;;;;;;;15.98;6.93;;;;;;;-143.54;100.00;59916.91;5098998;28;20479;-81
2023/12/27 10:11:38;;;;;;;13.65;6.10;;;;;;;-143.54;100.00;59916.91;5100098;28;20473;-81
2023/12/27 10:14:04;;;;;;;11.75;5.40;;;;;;;-143.54;100.00;59916.91;5100839;28;20012;-81
2023/12/27 10:16:30;;;;;;;9.68;4.57;;;;;;;-143.54;100.00;59916.91;5104367;28;20028;-81
2023/12/27 10:18:57;;;;;;;8.05;4.25;;;;;;;-143.54;100.00;59916.91;5098563;28;20024;-81
2023/12/27 10:21:22;;;;;;;7.57;4.07;;;;;;;-143.54;100.00;59916.91;5091247;28;20016;-82
2023/12/27 10:23:47;;;;;;;6.55;3.15;;;;;;;-143.54;100.00;59916.91;5101646;28;20013;-81
2023/12/27 10:26:13;;;;;;;5.78;3.50;;;;;;;-143.54;100.00;59916.91;5097786;28;20474;-81
2023/12/27 10:28:39;;;;;;;10.93;3.92;;;;;;;-143.54;100.00;59916.91;5102423;28;20043;-81
2023/12/27 10:31:05;;;;;;;7.07;3.25;;;;;;;-143.54;100.00;59916.91;5096447;28;20028;-81
2023/12/27 10:33:44;;;;;;;6.47;3.40;;;;;;;-143.54;100.00;59916.91;5104421;28;20046;-81
2023/12/27 10:36:10;;;;;;;6.53;3.70;;;;;;;-143.54;100.00;59916.91;5088743;28;20101;-81
2023/12/27 10:38:37;;;;;;;8.75;3.45;;;;;;;-143.54;100.00;59916.91;5103657;28;20066;-81
2023/12/27 10:41:04;;;;;;;6.97;3.92;;;;;;;-143.54;100.00;59916.91;5095891;28;20024;-81
2023/12/27 10:43:31;;;;;;;9.70;3.28;;;;;;;-143.54;100.00;59916.91;5101459;28;20104;-81
2023/12/27 10:45:57;;;;;;;8.57;3.35;;;;;;;-143.54;100.00;59916.91;5101537;28;20024;-81
2023/12/27 10:48:26;;;;;;;7.55;3.67;;;;;;;-143.54;100.00;59916.91;5102620;28;20352;-82